x

Cape Cleare - 17 Nm South Of Montague Is, Ak (46076) Wave Buoy

2:50am - Fri 12th Feb 2016 All times are AKST. -9 hours from GMT.

  • Sig Wave height 12.1ft
  • Swell Direction
  • Peak Period 11s
  • Average Period 7s
  • Wind
    31mph, 36mph gusts
  • Sea Temp 43°f
  • Air Temp 41°f
  • Sea Pressure 993.6mb
  • Cape Cleare - 17 Nm South Of Montague Is,  Ak
  • Cape Cleare - 17 Nm South Of Montague Is,  Ak

More Historic Weather Station data

Upgrade to MSW Pro to gain access to the past 30 days of data for over 8000 Wavebouys and Weather Stations around the globe.

Join Pro

Comparision Forecast

View Surf forecast
   
Fri 02/12 2:50am 12ft 11s 7s 31 36 mph 993.6mb 43f 41f
1:50am 12ft 11s 7s 34 40 mph 994.4mb 43f 41f
12:50am 12.5ft 11s 7s 29 36 mph 995.9mb 43f 43f
Thu 02/11 11:50pm 11.5ft 11s 7s 27 34 mph 997.2mb 44f 42f
10:50pm 11ft 11s 7s 27 31 mph 998.4mb 44f 42f
9:50pm 13ft 13s 8s 27 31 mph 999.2mb 44f 43f
8:50pm 13ft 12s 8s 22 27 mph 1000.4mb 44f 43f
7:50pm 13.5ft 11s 8s 22 27 mph 1001.7mb 44f 44f
6:50pm 12.5ft 12s 8s 18 20 mph 1002.6mb 44f 44f
5:50pm 15ft 12s 9s 22 29 mph 1002.8mb 44f 44f
4:50pm 15.5ft 11s 8s 25 31 mph 1002.8mb 44f 44f
3:50pm 14.5ft 11s 8s 22 29 mph 1003.2mb 44f 44f
2:50pm 15ft 11s 8s 20 25 mph 1003.3mb 44f 44f
1:50pm 13.5ft 11s 7s 22 27 mph 1002.8mb 44f 44f
12:50pm 13.5ft 10s 7s 29 36 mph 1001.9mb 44f 43f
11:50am 14ft 10s 7s 29 36 mph 1000.9mb 44f 42f
10:50am 14ft 9s 7s 29 36 mph 999.6mb 44f 43f
9:50am 14ft 9s 7s 31 38 mph 998.7mb 44f 43f
8:50am 13ft 9s 7s 29 38 mph 998.1mb 44f 44f
7:50am 13ft 9s 7s 27 38 mph 997.2mb 44f 43f
6:50am 12.5ft 13s 7s 29 38 mph 995.7mb 44f 43f
2:50am 10ft 12s 7s 27 34 mph 995.1mb 44f 45f
1:50am 11ft 13s 7s 22 27 mph 995mb 44f 45f
12:50am 10ft 13s 7s 22 25 mph 994.7mb 44f 44f
Wed 02/10 11:50pm 10.5ft 13s 7s 27 34 mph 994.2mb 44f 43f
10:50pm 9.5ft 14s 6s 29 36 mph 994.4mb 44f 42f
9:50pm 9ft 14s 6s 29 34 mph 994.9mb 44f 42f
8:50pm 9ft 11s 6s 27 34 mph 995.6mb 44f 42f
7:50pm 9.5ft 11s 6s 27 31 mph 996.3mb 44f 42f
6:50pm 8.5ft 11s 6s 25 29 mph 997.1mb 44f 42f
5:50pm 9ft 11s 7s 25 27 mph 997.2mb 44f 42f
4:50pm 8ft 9s 7s 18 22 mph 997.9mb 44f 43f
3:50pm 8ft 9s 7s 20 25 mph 998mb 44f 43f
2:50pm 8ft 7s 7s 16 20 mph 998.2mb 44f 44f
1:50pm 8.5ft 9s 7s 18 22 mph 998.4mb 44f 43f
12:50pm 9.5ft 7s 7s 18 22 mph 998.6mb 44f 43f
11:50am 11ft 9s 7s 18 20 mph 998.7mb 44f 42f
10:50am 11ft 8s 7s 18 20 mph 998.5mb 44f 44f
9:50am 12ft 8s 6s 29 38 mph 997.4mb 44f 41f
8:50am 11ft 7s 6s 34 40 mph 996.7mb 44f 40f
7:50am 10ft 7s 6s 36 43 mph 996.5mb 44f 41f
6:50am 9.5ft 7s 6s 36 43 mph 996.7mb 44f 41f
5:50am 8ft 11s 6s 31 43 mph 997.5mb 44f 43f
4:50am 7.5ft 7s 6s 29 36 mph 997.8mb 44f 42f
3:50am 7ft 11s 6s 31 38 mph 997.9mb 44f 42f
2:50am 7ft 6s 6s 27 31 mph 999.5mb 44f 43f
1:50am 8ft 11s 6s 22 29 mph 1000.9mb 44f 44f
12:50am 7ft 9s 6s 25 31 mph 1000.8mb 44f 44f
Tue 02/09 11:50pm 7ft 10s 7s 18 22 mph 1001.3mb 44f 44f
10:50pm 7ft 10s 7s 18 20 mph 1002mb 44f 44f
9:50pm 7ft 10s 7s 13 18 mph 1003.6mb 44f 43f
8:50pm 7ft 10s 6s 13 18 mph 1005.2mb 44f 42f
7:50pm 7ft 10s 6s 18 22 mph 1006.7mb 44f 41f
6:50pm 6ft 10s 6s 20 22 mph 1008mb 44f 41f
5:50pm 7ft 11s 6s 18 22 mph 1009.4mb 44f 42f
4:50pm 7ft 11s 6s 20 25 mph 1010.8mb 44f 41f
3:50pm 7.5ft 11s 6s 20 25 mph 1012.2mb 44f 41f
2:50pm 7ft 10s 7s 22 27 mph 1013.3mb 44f 41f
1:50pm 8ft 10s 7s 20 25 mph 1014.9mb 44f 41f
12:50pm 8ft 10s 8s 18 20 mph 1016mb 44f 42f
11:50am 7.5ft 11s 8s 13 16 mph 1017.2mb 44f 42f
10:50am 8ft 11s 7s 11 13 mph 1018mb 44f 42f
9:50am 8ft 10s 7s 13 16 mph 1018.3mb 44f 42f
8:50am 8ft 10s 7s 11 16 mph 1018.1mb 44f 42f
7:50am 9ft 10s 8s 13 16 mph 1017.9mb 44f 42f
6:50am 9ft 11s 8s 13 16 mph 1017.6mb 44f 42f
5:50am 10ft 10s 8s 13 18 mph 1017.2mb 44f 42f
4:50am 10ft 11s 8s 11 16 mph 1016.3mb 44f 42f
3:50am 9ft 11s 8s 11 16 mph 1015.9mb 44f 43f
2:50am 10ft 11s 8s 11 16 mph 1015.3mb 44f 43f
1:50am 10.5ft 11s 8s 13 16 mph 1014.6mb 44f 43f
12:50am 10ft 11s 8s 13 16 mph 1013.9mb 44f 43f
Mon 02/08 11:50pm 11ft 11s 8s 11 16 mph 1013.1mb 44f 43f
10:50pm 12ft 12s 8s 7 9 mph 1012.5mb 44f 42f
9:50pm 12ft 12s 8s 7 9 mph 1011.8mb 44f 42f
8:50pm 13ft 11s 8s 11 13 mph 1011.1mb 44f 43f
7:50pm 14ft 13s 9s 11 13 mph 1010.6mb 44f 43f
6:50pm 15ft 13s 9s 11 16 mph 1010.1mb 44f 43f
5:50pm 15ft 13s 9s 13 18 mph 1009.6mb 44f 43f
4:50pm 17.5ft 14s 10s 13 18 mph 1009.3mb 44f 43f
3:50pm 18.5ft 14s 10s 18 22 mph 1009.1mb 44f 43f
2:50pm 16.5ft 13s 9s 20 25 mph 1009mb 44f 43f
1:50pm 19ft 14s 10s 20 25 mph 1008.9mb 44f 43f
12:50pm 19.5ft 15s 10s 25 29 mph 1008.8mb 44f 43f